Terminal Aerodrome Forecast
Issued by NWS

Home | Current Version | Previous Version | Text Only | Print | Product List | Glossary Off
Versions: 1 2 3 4 5 6 7 8 9 10 11 12 13 14 15

572
FTUS45 KGGW 200738 AAA
TAFSDY
TAF AMD
KSDY 200738Z 2008/2106 30008KT P6SM BKN070
      TEMPO 2008/2011 3SM BR
     FM201100 VRB06KT 3SM BR FEW007 SCT011
     FM201400 34008KT P6SM SCT008
     FM201800 VRB05KT P6SM SKC=

USA.gov is the U.S. government's official web portal to all federal, state and local government web resources and services.